createdAt,value
2022-10-04T00:01:12.771Z,100194.20
2022-10-04T00:03:48.474Z,100191.60
2022-10-04T00:06:24.310Z,100195.40
2022-10-04T00:09:30.986Z,100187.60
2022-10-04T00:12:00.013Z,100188.20
2022-10-04T00:14:37.356Z,100192.20
2022-10-04T00:17:18.982Z,100185.00
2022-10-04T00:19:49.891Z,100190.40
2022-10-04T00:22:29.972Z,100188.20
2022-10-04T00:25:02.098Z,100178.80
2022-10-04T00:27:29.992Z,100179.40
2022-10-04T00:30:23.300Z,100177.80
2022-10-04T00:33:09.209Z,100175.20
2022-10-04T00:35:36.982Z,100168.60
2022-10-04T00:38:07.633Z,100169.80
2022-10-04T00:40:46.557Z,100176.20
2022-10-04T00:43:24.343Z,100168.80
2022-10-04T00:46:07.510Z,100169.00
2022-10-04T00:48:56.801Z,100159.60
2022-10-04T00:51:56.213Z,100166.60
2022-10-04T00:54:41.541Z,100164.80
2022-10-04T00:57:26.306Z,100165.40
2022-10-04T01:00:16.588Z,100166.20
2022-10-04T01:03:00.133Z,100168.60
2022-10-04T01:05:41.639Z,100167.20
2022-10-04T01:08:22.893Z,100170.40
2022-10-04T01:11:03.018Z,100171.40
2022-10-04T01:13:39.681Z,100168.40
2022-10-04T01:16:26.254Z,100173.60
2022-10-04T01:18:54.176Z,100169.20
2022-10-04T01:21:31.439Z,100167.20
2022-10-04T01:23:59.103Z,100166.20
2022-10-04T01:26:26.783Z,100158.80
2022-10-04T01:28:59.032Z,100153.20
2022-10-04T01:31:33.134Z,100156.40
2022-10-04T01:34:03.209Z,100156.40
2022-10-04T01:36:31.807Z,100159.60
2022-10-04T01:38:59.772Z,100158.20
2022-10-04T01:41:42.221Z,100159.00
2022-10-04T01:44:24.560Z,100161.60
2022-10-04T01:46:56.288Z,100162.60
2022-10-04T01:49:30.890Z,100162.60
2022-10-04T01:52:10.493Z,100156.20
2022-10-04T01:54:45.041Z,100166.00
2022-10-04T01:57:52.738Z,100171.60
2022-10-04T02:00:22.484Z,100171.00
2022-10-04T02:03:12.045Z,100173.40
2022-10-04T02:05:44.518Z,100180.20
2022-10-04T02:08:16.464Z,100178.40
2022-10-04T02:10:49.380Z,100179.00
2022-10-04T02:13:18.922Z,100178.80
2022-10-04T02:15:48.354Z,100185.80
2022-10-04T02:18:20.793Z,100186.60
2022-10-04T02:20:50.504Z,100186.20
2022-10-04T02:23:23.684Z,100188.20
2022-10-04T02:25:52.087Z,100179.80
2022-10-04T02:28:20.027Z,100180.20
2022-10-04T02:31:10.790Z,100180.60
2022-10-04T02:33:45.832Z,100183.40
2022-10-04T02:36:14.645Z,100184.00
2022-10-04T02:38:55.582Z,100183.80
2022-10-04T02:41:31.853Z,100186.20
2022-10-04T02:44:25.012Z,100181.60
2022-10-04T02:47:12.680Z,100186.00
2022-10-04T02:50:15.864Z,100182.40
2022-10-04T02:52:49.136Z,100191.60
2022-10-04T02:55:27.869Z,100189.60
2022-10-04T02:57:58.501Z,100191.80
2022-10-04T03:00:30.432Z,100198.80
2022-10-04T03:03:25.207Z,100191.00
2022-10-04T03:06:15.559Z,100190.60
2022-10-04T03:08:43.254Z,100191.20
2022-10-04T03:11:14.033Z,100186.20
2022-10-04T03:13:47.516Z,100183.80
2022-10-04T03:16:16.171Z,100183.00
2022-10-04T03:18:44.486Z,100186.20
2022-10-04T03:21:15.954Z,100186.00
2022-10-04T03:23:45.549Z,100186.20
2022-10-04T03:26:38.649Z,100188.20
2022-10-04T03:29:10.357Z,100192.20
2022-10-04T03:31:51.761Z,100193.60
2022-10-04T03:34:24.400Z,100196.60
2022-10-04T03:36:56.292Z,100196.40
2022-10-04T03:39:37.161Z,100195.20
2022-10-04T03:42:19.229Z,100193.60
2022-10-04T03:44:50.290Z,100194.40
2022-10-04T03:47:25.627Z,100194.20
2022-10-04T03:49:55.715Z,100198.80
2022-10-04T03:52:31.161Z,100198.80
2022-10-04T03:55:05.585Z,100196.80
2022-10-04T03:57:36.543Z,100198.00
2022-10-04T04:00:07.111Z,100200.40
2022-10-04T04:02:57.195Z,100205.00
2022-10-04T04:05:29.679Z,100209.60
2022-10-04T04:08:25.190Z,100205.80
2022-10-04T04:10:56.185Z,100205.60
2022-10-04T04:13:31.574Z,100208.20
2022-10-04T04:16:02.683Z,100211.60
2022-10-04T04:18:40.576Z,100215.80
2022-10-04T04:21:08.690Z,100221.00
2022-10-04T04:23:45.007Z,100209.40
2022-10-04T04:26:31.469Z,100210.80
2022-10-04T04:29:34.002Z,100209.60
2022-10-04T04:32:20.799Z,100213.00
2022-10-04T04:34:58.067Z,100219.60
2022-10-04T04:37:26.006Z,100225.80
2022-10-04T04:39:57.821Z,100232.40
2022-10-04T04:42:34.893Z,100226.40
2022-10-04T04:45:19.253Z,100232.20
2022-10-04T04:47:58.564Z,100231.20
2022-10-04T04:50:33.404Z,100235.20
2022-10-04T04:53:22.689Z,100234.80
2022-10-04T04:56:23.473Z,100236.60
2022-10-04T04:58:54.258Z,100234.20
2022-10-04T05:01:31.524Z,100236.40
2022-10-04T05:04:14.410Z,100242.00
2022-10-04T05:06:49.101Z,100246.00
2022-10-04T05:09:28.147Z,100248.00
2022-10-04T05:12:03.736Z,100249.40
2022-10-04T05:14:31.737Z,100253.60
2022-10-04T05:16:59.598Z,100265.00
2022-10-04T05:19:36.153Z,100263.40
2022-10-04T05:22:17.903Z,100269.20
2022-10-04T05:24:49.909Z,100268.20
2022-10-04T05:27:29.246Z,100269.00
2022-10-04T05:30:24.326Z,100274.20
2022-10-04T05:33:12.038Z,100278.20
2022-10-04T05:36:02.626Z,100282.60
2022-10-04T05:39:20.711Z,100283.20
2022-10-04T05:41:56.731Z,100288.00
2022-10-04T05:44:46.991Z,100291.60
2022-10-04T05:47:16.478Z,100300.40
2022-10-04T05:49:46.837Z,100304.60
2022-10-04T05:52:37.073Z,100310.20
2022-10-04T05:55:34.015Z,100306.20
2022-10-04T05:58:25.383Z,100314.20
2022-10-04T06:01:42.524Z,100315.60
2022-10-04T06:04:25.510Z,100321.00
2022-10-04T06:07:09.704Z,100322.00
2022-10-04T06:10:17.720Z,100323.20
2022-10-04T06:12:55.571Z,100329.60
2022-10-04T06:15:38.627Z,100326.00
2022-10-04T06:18:21.784Z,100336.40
2022-10-04T06:21:27.426Z,100338.60
2022-10-04T06:24:37.397Z,100342.20
2022-10-04T06:27:27.840Z,100339.60
2022-10-04T06:30:05.880Z,100341.40
2022-10-04T06:33:27.287Z,100344.20
2022-10-04T06:36:35.097Z,100346.60
2022-10-04T06:39:38.607Z,100348.20
2022-10-04T06:42:42.250Z,100351.40
2022-10-04T06:45:37.840Z,100364.40
2022-10-04T06:48:27.275Z,100369.80
2022-10-04T06:51:08.514Z,100369.60
2022-10-04T06:54:00.250Z,100375.00
2022-10-04T06:56:50.190Z,100376.20
2022-10-04T06:59:45.292Z,100381.00
2022-10-04T07:02:51.298Z,100384.80
2022-10-04T07:05:43.342Z,100388.00
2022-10-04T07:08:14.092Z,100385.20
2022-10-04T07:10:55.467Z,100388.00
2022-10-04T07:13:41.167Z,100392.20
2022-10-04T07:16:45.775Z,100395.80
2022-10-04T07:19:19.445Z,100396.40
2022-10-04T07:22:08.329Z,100402.20
2022-10-04T07:25:03.177Z,100407.80
2022-10-04T07:28:20.307Z,100404.20
2022-10-04T07:31:10.344Z,100408.40
2022-10-04T07:33:51.731Z,100415.00
2022-10-04T07:36:24.894Z,100425.00
2022-10-04T07:39:13.785Z,100427.40
2022-10-04T07:42:13.697Z,100426.40
2022-10-04T07:44:45.434Z,100430.60
2022-10-04T07:47:22.540Z,100429.60
2022-10-04T07:49:50.607Z,100433.40
2022-10-04T07:52:44.361Z,100435.60
2022-10-04T07:55:45.477Z,100443.20
2022-10-04T07:58:46.300Z,100445.80
2022-10-04T08:01:32.638Z,100445.80
2022-10-04T08:04:22.193Z,100451.40
2022-10-04T08:07:10.783Z,100455.80
2022-10-04T08:10:02.885Z,100459.40
2022-10-04T08:13:24.196Z,100462.20
2022-10-04T08:15:53.063Z,100461.20
2022-10-04T08:18:56.614Z,100464.60
2022-10-04T08:21:41.393Z,100468.20
2022-10-04T08:24:39.434Z,100468.80
2022-10-04T08:27:39.367Z,100464.60
2022-10-04T08:30:17.343Z,100466.80
2022-10-04T08:33:08.074Z,100466.20
2022-10-04T08:36:06.925Z,100467.80
2022-10-04T08:38:53.072Z,100468.80
2022-10-04T08:41:57.493Z,100471.40
2022-10-04T08:45:03.300Z,100467.80
2022-10-04T08:48:28.414Z,100473.80
2022-10-04T08:51:23.534Z,100474.00
2022-10-04T08:54:22.636Z,100469.60
2022-10-04T08:57:16.140Z,100475.00
2022-10-04T09:00:05.839Z,100475.80
2022-10-04T09:03:30.441Z,100487.00
2022-10-04T09:06:54.429Z,100484.60
2022-10-04T09:09:52.457Z,100487.40
2022-10-04T09:12:26.262Z,100489.40
2022-10-04T09:15:21.340Z,100489.80
2022-10-04T09:18:48.958Z,100500.20
2022-10-04T09:21:41.322Z,100499.40
2022-10-04T09:24:43.270Z,100500.00
2022-10-04T09:28:02.172Z,100509.60
2022-10-04T09:31:30.186Z,100506.00
2022-10-04T09:34:22.193Z,100513.80
2022-10-04T09:37:14.384Z,100514.20
2022-10-04T09:40:11.073Z,100515.00
2022-10-04T09:42:57.939Z,100518.00
2022-10-04T09:45:45.298Z,100521.60
2022-10-04T09:48:46.916Z,100523.00
2022-10-04T09:51:30.782Z,100526.60
2022-10-04T09:54:47.155Z,100533.20
2022-10-04T09:58:14.986Z,100535.40
2022-10-04T10:00:46.651Z,100530.60
2022-10-04T10:03:38.632Z,100539.60
2022-10-04T10:06:19.092Z,100537.60
2022-10-04T10:09:48.005Z,100538.00
2022-10-04T10:12:56.719Z,100542.00
2022-10-04T10:15:59.152Z,100546.40
2022-10-04T10:18:51.922Z,100550.80
2022-10-04T10:22:00.394Z,100545.00
2022-10-04T10:25:27.547Z,100548.00
2022-10-04T10:28:36.999Z,100553.00
2022-10-04T10:31:48.206Z,100556.20
2022-10-04T10:34:16.215Z,100560.00
2022-10-04T10:37:18.897Z,100568.00
2022-10-04T10:39:50.269Z,100570.20
2022-10-04T10:42:55.516Z,100567.40
2022-10-04T10:45:43.890Z,100572.00
2022-10-04T10:48:19.510Z,100571.60
2022-10-04T10:51:10.403Z,100570.20
2022-10-04T10:53:52.586Z,100575.20
2022-10-04T10:56:38.436Z,100577.60
2022-10-04T10:59:15.505Z,100580.20
2022-10-04T11:02:37.185Z,100578.60
2022-10-04T11:05:58.143Z,100587.00
2022-10-04T11:09:08.121Z,100590.00
2022-10-04T11:12:16.523Z,100593.00
2022-10-04T11:14:53.361Z,100593.00
2022-10-04T11:17:48.206Z,100598.40
2022-10-04T11:20:49.976Z,100602.60
2022-10-04T11:23:26.779Z,100608.60
2022-10-04T11:25:57.691Z,100606.80
2022-10-04T11:28:37.975Z,100616.80
2022-10-04T11:31:27.431Z,100620.40
2022-10-04T11:34:01.164Z,100623.40
2022-10-04T11:36:44.173Z,100621.40
2022-10-04T11:39:30.455Z,100623.20
2022-10-04T11:42:45.525Z,100622.60
2022-10-04T11:45:33.443Z,100623.80
2022-10-04T11:48:27.781Z,100624.00
2022-10-04T11:51:26.130Z,100629.80
2022-10-04T11:54:31.670Z,100637.80
2022-10-04T11:57:34.505Z,100637.80
2022-10-04T12:00:16.807Z,100636.20
2022-10-04T12:03:32.053Z,100637.40
2022-10-04T12:06:34.969Z,100630.60
2022-10-04T12:09:17.420Z,100637.00
2022-10-04T12:12:37.091Z,100640.60
2022-10-04T12:16:13.852Z,100652.80
2022-10-04T12:19:17.905Z,100651.00
2022-10-04T12:22:01.810Z,100650.80
2022-10-04T12:24:59.862Z,100650.80
2022-10-04T12:27:59.624Z,100659.00
2022-10-04T12:30:52.028Z,100660.60
2022-10-04T12:33:37.344Z,100663.00
2022-10-04T12:36:13.662Z,100656.00
2022-10-04T12:39:02.931Z,100664.60
2022-10-04T12:41:45.959Z,100665.00
2022-10-04T12:44:25.939Z,100669.20
2022-10-04T12:47:50.515Z,100675.80
2022-10-04T12:51:04.124Z,100676.60
2022-10-04T12:54:01.442Z,100681.40
2022-10-04T12:57:14.543Z,100690.60
2022-10-04T13:00:16.825Z,100691.80
2022-10-04T13:03:06.763Z,100694.20
2022-10-04T13:06:16.543Z,100692.60
2022-10-04T13:09:07.571Z,100691.20
2022-10-04T13:11:57.227Z,100692.20
2022-10-04T13:15:06.312Z,100697.60
2022-10-04T13:18:18.649Z,100691.40
2022-10-04T13:21:14.653Z,100698.80
2022-10-04T13:24:06.975Z,100700.00
2022-10-04T13:27:00.898Z,100698.00
2022-10-04T13:30:02.339Z,100705.40
2022-10-04T13:33:04.566Z,100705.60
2022-10-04T13:35:46.061Z,100712.40
2022-10-04T13:38:31.669Z,100715.40
2022-10-04T13:41:41.329Z,100710.00
2022-10-04T13:44:33.446Z,100716.60
2022-10-04T13:47:04.747Z,100722.40
2022-10-04T13:50:19.685Z,100726.60
2022-10-04T13:53:54.361Z,100723.40
2022-10-04T13:57:05.142Z,100725.40
2022-10-04T13:59:44.927Z,100729.40
2022-10-04T14:02:49.683Z,100733.20
2022-10-04T14:05:38.712Z,100739.00
2022-10-04T14:08:49.839Z,100741.80
2022-10-04T14:11:43.250Z,100735.20
2022-10-04T14:15:12.292Z,100732.40
2022-10-04T14:18:21.287Z,100733.80
2022-10-04T14:21:44.052Z,100747.00
2022-10-04T14:24:28.102Z,100747.40
2022-10-04T14:27:10.048Z,100750.80
2022-10-04T14:30:06.281Z,100748.60
2022-10-04T14:33:04.035Z,100752.80
2022-10-04T14:35:47.264Z,100756.00
2022-10-04T14:38:14.920Z,100758.00
2022-10-04T14:40:56.205Z,100764.40
2022-10-04T14:43:50.819Z,100766.40
2022-10-04T14:46:25.642Z,100769.40
2022-10-04T14:48:59.536Z,100772.60
2022-10-04T14:52:06.534Z,100772.80
2022-10-04T14:54:56.422Z,100779.20
2022-10-04T14:57:51.261Z,100778.00
2022-10-04T15:01:01.329Z,100783.40
2022-10-04T15:03:55.307Z,100787.40
2022-10-04T15:06:36.508Z,100791.60
2022-10-04T15:10:05.692Z,100789.00
2022-10-04T15:13:13.748Z,100790.60
2022-10-04T15:15:44.737Z,100796.40
2022-10-04T15:18:38.152Z,100794.80
2022-10-04T15:21:33.034Z,100797.60
2022-10-04T15:24:25.606Z,100796.60
2022-10-04T15:27:17.492Z,100799.40
2022-10-04T15:29:58.035Z,100800.80
2022-10-04T15:32:45.069Z,100808.60
2022-10-04T15:35:49.370Z,100810.00
2022-10-04T15:38:50.766Z,100809.40
2022-10-04T15:41:19.803Z,100810.00
2022-10-04T15:44:13.328Z,100815.40
2022-10-04T15:46:56.891Z,100818.20
2022-10-04T15:50:17.362Z,100823.80
2022-10-04T15:53:08.057Z,100829.00
2022-10-04T15:55:35.946Z,100832.60
2022-10-04T15:59:01.072Z,100838.60
2022-10-04T16:02:02.656Z,100840.20
2022-10-04T16:04:51.735Z,100843.00
2022-10-04T16:07:50.288Z,100846.80
2022-10-04T16:10:28.347Z,100854.80
2022-10-04T16:13:17.365Z,100861.20
2022-10-04T16:15:49.565Z,100862.80
2022-10-04T16:18:36.850Z,100866.00
2022-10-04T16:21:06.795Z,100865.60
2022-10-04T16:23:43.917Z,100872.80
2022-10-04T16:26:34.900Z,100872.20
2022-10-04T16:29:11.810Z,100877.20
2022-10-04T16:31:54.781Z,100876.00
2022-10-04T16:34:50.167Z,100873.20
2022-10-04T16:37:38.758Z,100873.40
2022-10-04T16:40:12.022Z,100880.00
2022-10-04T16:42:45.528Z,100887.20
2022-10-04T16:45:45.708Z,100888.60
2022-10-04T16:48:37.685Z,100889.20
2022-10-04T16:51:33.987Z,100890.20
2022-10-04T16:54:31.313Z,100895.20
2022-10-04T16:57:00.745Z,100896.60
2022-10-04T16:59:38.135Z,100898.60
2022-10-04T17:02:37.863Z,100898.00
2022-10-04T17:05:37.101Z,100904.20
2022-10-04T17:08:16.677Z,100907.20
2022-10-04T17:11:08.699Z,100904.60
2022-10-04T17:13:45.847Z,100906.00
2022-10-04T17:16:21.911Z,100905.20
2022-10-04T17:18:55.705Z,100907.40
2022-10-04T17:22:06.853Z,100914.20
2022-10-04T17:24:51.487Z,100912.40
2022-10-04T17:27:35.133Z,100915.80
2022-10-04T17:30:21.908Z,100921.80
2022-10-04T17:33:24.098Z,100919.20
2022-10-04T17:36:07.090Z,100923.40
2022-10-04T17:39:03.011Z,100924.00
2022-10-04T17:41:55.742Z,100925.40
2022-10-04T17:44:45.746Z,100922.20
2022-10-04T17:47:56.387Z,100924.20
2022-10-04T17:51:02.710Z,100925.80
2022-10-04T17:53:54.393Z,100922.40
2022-10-04T17:56:45.615Z,100926.20
2022-10-04T17:59:21.693Z,100934.80
2022-10-04T18:02:03.083Z,100934.00
2022-10-04T18:04:36.448Z,100937.40
2022-10-04T18:07:04.148Z,100934.20
2022-10-04T18:10:27.929Z,100936.60
2022-10-04T18:13:11.239Z,100939.20
2022-10-04T18:15:54.721Z,100945.80
2022-10-04T18:18:41.765Z,100952.00
2022-10-04T18:21:15.280Z,100956.20
2022-10-04T18:23:57.934Z,100953.60
2022-10-04T18:26:33.205Z,100955.80
2022-10-04T18:29:01.823Z,100961.60
2022-10-04T18:31:31.217Z,100958.40
2022-10-04T18:34:28.445Z,100964.00
2022-10-04T18:37:08.106Z,100962.80
2022-10-04T18:39:48.764Z,100965.40
2022-10-04T18:42:37.109Z,100969.00
2022-10-04T18:45:25.609Z,100974.60
2022-10-04T18:47:53.661Z,100973.60
2022-10-04T18:50:21.369Z,100978.20
2022-10-04T18:53:29.619Z,100981.80
2022-10-04T18:55:59.955Z,100979.80
2022-10-04T18:59:19.611Z,100981.40
2022-10-04T19:02:16.202Z,100982.80
2022-10-04T19:05:06.798Z,100991.40
2022-10-04T19:07:58.880Z,100995.40
2022-10-04T19:10:54.961Z,100996.40
2022-10-04T19:14:02.670Z,100994.40
2022-10-04T19:17:01.512Z,100999.40
2022-10-04T19:19:57.690Z,101007.00
2022-10-04T19:22:59.350Z,101004.60
2022-10-04T19:26:09.866Z,101013.00
2022-10-04T19:28:37.769Z,101012.20
2022-10-04T19:31:11.713Z,101012.20
2022-10-04T19:34:18.822Z,101011.60
2022-10-04T19:37:02.448Z,101011.80
2022-10-04T19:39:48.579Z,101014.80
2022-10-04T19:42:26.719Z,101015.00
2022-10-04T19:45:33.406Z,101017.00
2022-10-04T19:48:09.398Z,101025.60
2022-10-04T19:50:46.110Z,101021.40
2022-10-04T19:53:30.992Z,101023.20
2022-10-04T19:56:01.194Z,101028.40
2022-10-04T19:58:47.694Z,101029.00
2022-10-04T20:01:23.166Z,101035.60
2022-10-04T20:04:11.557Z,101043.20
2022-10-04T20:06:49.399Z,101039.80
2022-10-04T20:09:41.141Z,101036.20
2022-10-04T20:12:43.229Z,101036.00
2022-10-04T20:15:25.207Z,101039.00
2022-10-04T20:17:56.345Z,101046.00
2022-10-04T20:20:39.146Z,101047.80
2022-10-04T20:23:08.615Z,101052.60
2022-10-04T20:25:45.866Z,101047.60
2022-10-04T20:28:28.956Z,101053.40
2022-10-04T20:30:59.753Z,101058.00
2022-10-04T20:33:39.223Z,101059.00
2022-10-04T20:36:14.172Z,101061.00
2022-10-04T20:38:50.259Z,101073.00
2022-10-04T20:42:03.070Z,101070.20
2022-10-04T20:44:55.881Z,101076.00
2022-10-04T20:47:33.236Z,101069.60
2022-10-04T20:50:02.563Z,101072.40
2022-10-04T20:52:36.658Z,101073.40
2022-10-04T20:55:28.157Z,101074.60
2022-10-04T20:58:03.407Z,101068.60
2022-10-04T21:00:34.734Z,101070.00
2022-10-04T21:03:18.204Z,101077.60
2022-10-04T21:06:00.371Z,101084.80
2022-10-04T21:08:29.629Z,101084.20
2022-10-04T21:11:09.648Z,101084.20
2022-10-04T21:13:53.698Z,101084.40
2022-10-04T21:16:42.385Z,101088.40
2022-10-04T21:19:38.934Z,101084.20
2022-10-04T21:22:08.314Z,101083.40
2022-10-04T21:24:54.846Z,101085.00
2022-10-04T21:27:34.363Z,101090.80
2022-10-04T21:30:13.802Z,101090.60
2022-10-04T21:32:41.687Z,101083.80
2022-10-04T21:35:10.315Z,101094.20
2022-10-04T21:37:38.223Z,101096.20
2022-10-04T21:40:07.460Z,101095.60
2022-10-04T21:42:35.313Z,101084.80
2022-10-04T21:45:03.527Z,101088.60
2022-10-04T21:47:31.288Z,101080.00
2022-10-04T21:49:59.053Z,101075.40
2022-10-04T21:52:26.782Z,101075.80
2022-10-04T21:54:54.595Z,101074.80
2022-10-04T21:57:24.072Z,101074.00
2022-10-04T21:59:52.601Z,101069.20
2022-10-04T22:02:20.439Z,101084.20
2022-10-04T22:04:48.497Z,101087.40
2022-10-04T22:07:16.376Z,101081.60
2022-10-04T22:09:44.142Z,101083.40
2022-10-04T22:12:11.932Z,101082.80
2022-10-04T22:14:39.902Z,101087.20
2022-10-04T22:17:07.911Z,101089.60
2022-10-04T22:19:35.953Z,101100.20
2022-10-04T22:22:03.758Z,101103.00
2022-10-04T22:24:39.023Z,101107.60
2022-10-04T22:27:19.887Z,101104.80
2022-10-04T22:29:48.106Z,101109.40
2022-10-04T22:32:25.623Z,101106.00
2022-10-04T22:35:01.819Z,101108.20
2022-10-04T22:37:31.133Z,101114.20
2022-10-04T22:39:58.939Z,101117.20
2022-10-04T22:42:31.533Z,101123.80
2022-10-04T22:45:02.143Z,101123.40
2022-10-04T22:47:31.714Z,101130.00
2022-10-04T22:49:59.552Z,101137.20
2022-10-04T22:52:29.764Z,101137.60
2022-10-04T22:55:02.048Z,101136.40
2022-10-04T22:57:30.605Z,101139.20
2022-10-04T22:59:58.385Z,101142.40
2022-10-04T23:02:30.498Z,101139.20
2022-10-04T23:05:09.504Z,101138.40
2022-10-04T23:07:38.517Z,101136.20
2022-10-04T23:10:07.861Z,101135.00
2022-10-04T23:12:36.215Z,101136.20
2022-10-04T23:15:06.455Z,101139.00
2022-10-04T23:17:39.903Z,101139.60
2022-10-04T23:20:17.238Z,101143.80
2022-10-04T23:22:49.180Z,101134.80
2022-10-04T23:25:29.469Z,101126.40
2022-10-04T23:28:02.962Z,101138.00
2022-10-04T23:30:31.011Z,101137.80
2022-10-04T23:33:00.804Z,101139.00
2022-10-04T23:35:33.079Z,101135.20
2022-10-04T23:38:07.069Z,101135.80
2022-10-04T23:40:34.911Z,101139.00
2022-10-04T23:43:05.304Z,101142.80
2022-10-04T23:45:35.330Z,101133.20
2022-10-04T23:48:03.247Z,101131.80
2022-10-04T23:50:37.642Z,101124.00
2022-10-04T23:53:19.561Z,101122.60
2022-10-04T23:55:47.372Z,101130.20
2022-10-04T23:58:32.301Z,101134.60
